createdAt,value
2018-08-04T00:00:45.926Z,964.53
2018-08-04T00:01:45.868Z,964.54
2018-08-04T00:02:45.811Z,964.55
2018-08-04T00:03:45.752Z,964.56
2018-08-04T00:04:45.701Z,964.57
2018-08-04T00:05:45.639Z,964.56
2018-08-04T00:06:45.581Z,964.56
2018-08-04T00:07:45.525Z,964.54
2018-08-04T00:08:45.485Z,964.51
2018-08-04T00:09:45.411Z,964.49
2018-08-04T00:10:45.353Z,964.51
2018-08-04T00:11:45.303Z,964.49
2018-08-04T00:12:45.239Z,964.46
2018-08-04T00:13:45.181Z,964.47
2018-08-04T00:14:45.124Z,964.50
2018-08-04T00:15:45.067Z,964.46
2018-08-04T00:16:45.009Z,964.45
2018-08-04T00:17:44.952Z,964.45
2018-08-04T00:18:44.894Z,964.44
2018-08-04T00:19:44.837Z,964.42
2018-08-04T00:20:44.783Z,964.44
2018-08-04T00:21:44.722Z,964.46
2018-08-04T00:22:44.666Z,964.41
2018-08-04T00:23:44.609Z,964.42
2018-08-04T00:24:44.552Z,964.42
2018-08-04T00:25:44.490Z,964.40
2018-08-04T00:26:44.438Z,964.36
2018-08-04T00:27:44.381Z,964.40
2018-08-04T00:28:44.318Z,964.38
2018-08-04T00:29:44.264Z,964.38
2018-08-04T00:30:44.202Z,964.38
2018-08-04T00:31:44.149Z,964.37
2018-08-04T00:32:44.094Z,964.37
2018-08-04T00:33:44.035Z,964.39
2018-08-04T00:34:43.976Z,964.40
2018-08-04T00:35:43.920Z,964.40
2018-08-04T00:36:43.861Z,964.44
2018-08-04T00:37:43.802Z,964.43
2018-08-04T00:38:43.746Z,964.45
2018-08-04T00:39:43.697Z,964.45
2018-08-04T00:40:43.631Z,964.43
2018-08-04T00:41:43.577Z,964.41
2018-08-04T00:42:43.520Z,964.44
2018-08-04T00:43:43.462Z,964.45
2018-08-04T00:44:43.403Z,964.45
2018-08-04T00:45:43.345Z,964.46
2018-08-04T00:46:43.288Z,964.47
2018-08-04T00:47:43.247Z,964.45
2018-08-04T00:48:43.176Z,964.42
2018-08-04T00:49:43.113Z,964.44
2018-08-04T00:50:43.057Z,964.35
2018-08-04T00:51:43.008Z,964.41
2018-08-04T00:52:42.941Z,964.36
2018-08-04T00:53:42.883Z,964.40
2018-08-04T00:54:42.826Z,964.39
2018-08-04T00:55:42.771Z,964.38
2018-08-04T00:56:42.717Z,964.37
2018-08-04T00:57:42.654Z,964.36
2018-08-04T00:58:42.597Z,964.38
2018-08-04T00:59:42.539Z,964.38
2018-08-04T01:00:42.486Z,964.39
2018-08-04T01:01:42.425Z,964.38
2018-08-04T01:02:42.367Z,964.42
2018-08-04T01:03:42.309Z,964.43
2018-08-04T01:04:42.252Z,964.41
2018-08-04T01:05:42.194Z,964.40
2018-08-04T01:06:42.136Z,964.38
2018-08-04T01:07:42.078Z,964.37
2018-08-04T01:08:42.023Z,964.42
2018-08-04T01:09:41.962Z,964.40
2018-08-04T01:10:41.907Z,964.42
2018-08-04T01:11:41.845Z,964.42
2018-08-04T01:12:41.789Z,964.43
2018-08-04T01:13:41.731Z,964.46
2018-08-04T01:14:41.682Z,964.45
2018-08-04T01:15:41.618Z,964.46
2018-08-04T01:16:41.558Z,964.42
2018-08-04T01:17:41.500Z,964.44
2018-08-04T01:18:41.442Z,964.42
2018-08-04T01:19:41.388Z,964.43
2018-08-04T01:20:41.328Z,964.44
2018-08-04T01:21:41.270Z,964.41
2018-08-04T01:22:41.212Z,964.41
2018-08-04T01:23:41.157Z,964.39
2018-08-04T01:24:41.097Z,964.41
2018-08-04T01:25:41.040Z,964.42
2018-08-04T01:26:40.983Z,964.42
2018-08-04T01:27:40.925Z,964.42
2018-08-04T01:28:40.868Z,964.40
2018-08-04T01:29:40.807Z,964.38
2018-08-04T01:30:40.751Z,964.40
2018-08-04T01:31:40.693Z,964.39
2018-08-04T01:32:40.634Z,964.38
2018-08-04T01:33:40.576Z,964.39
2018-08-04T01:34:40.518Z,964.39
2018-08-04T01:35:40.464Z,964.36
2018-08-04T01:36:40.408Z,964.37
2018-08-04T01:37:40.348Z,964.40
2018-08-04T01:38:40.287Z,964.39
2018-08-04T01:39:40.231Z,964.42
2018-08-04T01:40:40.177Z,964.40
2018-08-04T01:41:40.116Z,964.37
2018-08-04T01:42:40.059Z,964.40
2018-08-04T01:43:40.001Z,964.41
2018-08-04T01:44:39.942Z,964.41
2018-08-04T01:45:39.885Z,964.39
2018-08-04T01:46:39.825Z,964.36
2018-08-04T01:47:39.768Z,964.38
2018-08-04T01:48:39.730Z,964.35
2018-08-04T01:49:39.649Z,964.36
2018-08-04T01:50:39.593Z,964.35
2018-08-04T01:51:39.535Z,964.36
2018-08-04T01:52:39.480Z,964.37
2018-08-04T01:53:39.432Z,964.38
2018-08-04T01:54:39.366Z,964.38
2018-08-04T01:55:39.305Z,964.39
2018-08-04T01:56:39.248Z,964.38
2018-08-04T01:57:39.192Z,964.35
2018-08-04T01:58:39.129Z,964.37
2018-08-04T01:59:39.072Z,964.34
2018-08-04T02:00:39.016Z,964.35
2018-08-04T02:01:38.959Z,964.31
2018-08-04T02:02:38.903Z,964.30
2018-08-04T02:03:38.840Z,964.32
2018-08-04T02:04:38.783Z,964.30
2018-08-04T02:05:38.736Z,964.31
2018-08-04T02:06:38.669Z,964.32
2018-08-04T02:07:38.608Z,964.31
2018-08-04T02:08:38.550Z,964.35
2018-08-04T02:09:38.492Z,964.31
2018-08-04T02:10:38.435Z,964.29
2018-08-04T02:11:38.381Z,964.29
2018-08-04T02:12:38.319Z,964.25
2018-08-04T02:13:38.261Z,964.27
2018-08-04T02:14:38.205Z,964.26
2018-08-04T02:15:38.145Z,964.25
2018-08-04T02:16:38.086Z,964.25
2018-08-04T02:17:38.028Z,964.25
2018-08-04T02:18:37.969Z,964.24
2018-08-04T02:19:37.913Z,964.24
2018-08-04T02:20:37.859Z,964.26
2018-08-04T02:21:37.799Z,964.26
2018-08-04T02:22:37.737Z,964.28
2018-08-04T02:23:37.680Z,964.29
2018-08-04T02:24:37.623Z,964.29
2018-08-04T02:25:37.563Z,964.29
2018-08-04T02:26:37.506Z,964.28
2018-08-04T02:27:37.449Z,964.27
2018-08-04T02:28:37.390Z,964.25
2018-08-04T02:29:37.330Z,964.22
2018-08-04T02:30:37.272Z,964.22
2018-08-04T02:31:37.216Z,964.24
2018-08-04T02:32:37.157Z,964.23
2018-08-04T02:33:37.099Z,964.22
2018-08-04T02:34:37.042Z,964.22
2018-08-04T02:35:36.987Z,964.21
2018-08-04T02:36:36.924Z,964.23
2018-08-04T02:37:36.866Z,964.19
2018-08-04T02:38:36.808Z,964.21
2018-08-04T02:39:36.751Z,964.14
2018-08-04T02:40:36.692Z,964.19
2018-08-04T02:41:36.633Z,964.19
2018-08-04T02:42:36.580Z,964.14
2018-08-04T02:43:36.519Z,964.18
2018-08-04T02:44:36.460Z,964.15
2018-08-04T02:45:36.401Z,964.15
2018-08-04T02:46:36.343Z,964.17
2018-08-04T02:47:36.285Z,964.15
2018-08-04T02:48:36.227Z,964.14
2018-08-04T02:49:36.168Z,964.12
2018-08-04T02:50:36.110Z,964.13
2018-08-04T02:51:36.058Z,964.17
2018-08-04T02:52:35.992Z,964.12
2018-08-04T02:53:35.936Z,964.19
2018-08-04T02:54:35.878Z,964.17
2018-08-04T02:55:35.816Z,964.17
2018-08-04T02:56:35.762Z,964.13
2018-08-04T02:57:35.707Z,964.14
2018-08-04T02:58:35.643Z,964.13
2018-08-04T02:59:35.585Z,964.12
2018-08-04T03:00:35.527Z,964.08
2018-08-04T03:01:35.470Z,964.09
2018-08-04T03:02:35.411Z,964.08
2018-08-04T03:03:35.353Z,964.07
2018-08-04T03:04:35.297Z,964.03
2018-08-04T03:05:35.236Z,964.10
2018-08-04T03:06:35.178Z,964.09
2018-08-04T03:07:35.120Z,964.09
2018-08-04T03:08:35.131Z,964.12
2018-08-04T03:09:35.017Z,964.12
2018-08-04T03:10:34.955Z,964.10
2018-08-04T03:11:34.888Z,964.10
2018-08-04T03:12:34.829Z,964.13
2018-08-04T03:13:34.770Z,964.09
2018-08-04T03:14:34.715Z,964.12
2018-08-04T03:15:34.655Z,964.11
2018-08-04T03:16:34.601Z,964.16
2018-08-04T03:17:34.537Z,964.12
2018-08-04T03:18:34.480Z,964.15
2018-08-04T03:19:34.421Z,964.15
2018-08-04T03:20:34.362Z,964.16
2018-08-04T03:21:34.305Z,964.19
2018-08-04T03:22:34.248Z,964.24
2018-08-04T03:23:34.188Z,964.22
2018-08-04T03:24:34.129Z,964.21
2018-08-04T03:25:34.073Z,964.26
2018-08-04T03:26:34.013Z,964.24
2018-08-04T03:27:33.954Z,964.27
2018-08-04T03:28:33.901Z,964.28
2018-08-04T03:29:33.841Z,964.27
2018-08-04T03:30:33.780Z,964.27
2018-08-04T03:31:33.725Z,964.30
2018-08-04T03:32:33.664Z,964.27
2018-08-04T03:33:33.603Z,964.28
2018-08-04T03:34:33.544Z,964.30
2018-08-04T03:35:33.489Z,964.29
2018-08-04T03:36:33.429Z,964.28
2018-08-04T03:37:33.371Z,964.29
2018-08-04T03:38:33.313Z,964.31
2018-08-04T03:39:33.250Z,964.26
2018-08-04T03:40:33.196Z,964.27
2018-08-04T03:41:33.137Z,964.30
2018-08-04T03:42:33.077Z,964.31
2018-08-04T03:43:33.019Z,964.32
2018-08-04T03:44:32.974Z,964.31
2018-08-04T03:45:32.904Z,964.28
2018-08-04T03:46:32.844Z,964.32
2018-08-04T03:47:32.786Z,964.35
2018-08-04T03:48:32.728Z,964.31
2018-08-04T03:49:32.668Z,964.34
2018-08-04T03:50:32.610Z,964.34
2018-08-04T03:51:32.552Z,964.37
2018-08-04T03:52:32.494Z,964.35
2018-08-04T03:53:32.434Z,964.36
2018-08-04T03:54:32.377Z,964.38
2018-08-04T03:55:32.318Z,964.35
2018-08-04T03:56:32.261Z,964.41
2018-08-04T03:57:32.202Z,964.42
2018-08-04T03:58:32.142Z,964.38
2018-08-04T03:59:32.095Z,964.40
2018-08-04T04:00:32.039Z,964.38
2018-08-04T04:01:31.969Z,964.39
2018-08-04T04:02:31.908Z,964.43
2018-08-04T04:03:31.849Z,964.44
2018-08-04T04:04:31.792Z,964.43
2018-08-04T04:05:31.732Z,964.42
2018-08-04T04:06:31.735Z,964.41
2018-08-04T04:07:31.618Z,964.40
2018-08-04T04:08:31.558Z,964.43
2018-08-04T04:09:31.502Z,964.41
2018-08-04T04:10:31.444Z,964.40
2018-08-04T04:11:31.382Z,964.39
2018-08-04T04:12:31.322Z,964.40
2018-08-04T04:13:31.265Z,964.40
2018-08-04T04:14:31.209Z,964.41
2018-08-04T04:15:31.165Z,964.36
2018-08-04T04:16:31.090Z,964.37
2018-08-04T04:17:31.032Z,964.39
2018-08-04T04:18:30.974Z,964.42
2018-08-04T04:19:30.916Z,964.43
2018-08-04T04:20:30.857Z,964.46
2018-08-04T04:21:30.797Z,964.45
2018-08-04T04:22:30.738Z,964.46
2018-08-04T04:23:30.681Z,964.50
2018-08-04T04:24:30.621Z,964.49
2018-08-04T04:25:30.562Z,964.46
2018-08-04T04:26:30.505Z,964.48
2018-08-04T04:27:30.448Z,964.49
2018-08-04T04:28:30.388Z,964.52
2018-08-04T04:29:30.332Z,964.51
2018-08-04T04:30:30.270Z,964.52
2018-08-04T04:31:30.212Z,964.59
2018-08-04T04:32:30.158Z,964.55
2018-08-04T04:33:30.096Z,964.55
2018-08-04T04:34:30.038Z,964.56
2018-08-04T04:35:29.978Z,964.58
2018-08-04T04:36:29.921Z,964.57
2018-08-04T04:37:29.863Z,964.56
2018-08-04T04:38:29.802Z,964.59
2018-08-04T04:39:29.746Z,964.60
2018-08-04T04:40:29.689Z,964.57
2018-08-04T04:41:29.629Z,964.64
2018-08-04T04:42:29.569Z,964.63
2018-08-04T04:43:29.512Z,964.58
2018-08-04T04:44:29.454Z,964.60
2018-08-04T04:45:29.394Z,964.59
2018-08-04T04:46:29.335Z,964.58
2018-08-04T04:47:29.280Z,964.58
2018-08-04T04:48:29.276Z,964.60
2018-08-04T04:49:29.160Z,964.62
2018-08-04T04:50:29.103Z,964.63
2018-08-04T04:51:29.040Z,964.66
2018-08-04T04:52:28.988Z,964.69
2018-08-04T04:53:28.928Z,964.66
2018-08-04T04:54:28.872Z,964.65
2018-08-04T04:55:28.831Z,964.67
2018-08-04T04:56:28.755Z,964.63
2018-08-04T04:57:28.694Z,964.64
2018-08-04T04:58:28.634Z,964.56
2018-08-04T04:59:28.580Z,964.63
2018-08-04T05:00:28.519Z,964.60
2018-08-04T05:01:28.468Z,964.59
2018-08-04T05:02:28.397Z,964.59
2018-08-04T05:03:28.352Z,964.62
2018-08-04T05:04:28.289Z,964.59
2018-08-04T05:05:28.227Z,964.64
2018-08-04T05:06:28.168Z,964.61
2018-08-04T05:07:28.110Z,964.63
2018-08-04T05:08:28.056Z,964.65
2018-08-04T05:09:27.996Z,964.64
2018-08-04T05:10:27.935Z,964.60
2018-08-04T05:11:27.881Z,964.61
2018-08-04T05:12:27.830Z,964.63
2018-08-04T05:13:27.762Z,964.60
2018-08-04T05:14:27.702Z,964.57
2018-08-04T05:15:27.647Z,964.57
2018-08-04T05:16:27.587Z,964.58
2018-08-04T05:17:27.530Z,964.55
2018-08-04T05:18:27.470Z,964.57
2018-08-04T05:19:27.413Z,964.59
2018-08-04T05:20:27.354Z,964.57
2018-08-04T05:21:27.351Z,964.59
2018-08-04T05:22:27.239Z,964.60
2018-08-04T05:23:27.182Z,964.56
2018-08-04T05:24:27.125Z,964.55
2018-08-04T05:25:27.064Z,964.56
2018-08-04T05:26:27.025Z,964.56
2018-08-04T05:27:26.948Z,964.52
2018-08-04T05:28:26.890Z,964.53
2018-08-04T05:29:26.834Z,964.54
2018-08-04T05:30:26.781Z,964.55
2018-08-04T05:31:26.715Z,964.57
2018-08-04T05:32:26.660Z,964.58
2018-08-04T05:33:26.602Z,964.56
2018-08-04T05:34:26.543Z,964.58
2018-08-04T05:35:26.485Z,964.53
2018-08-04T05:36:26.429Z,964.56
2018-08-04T05:37:26.430Z,964.54
2018-08-04T05:38:26.314Z,964.54
2018-08-04T05:39:26.254Z,964.54
2018-08-04T05:40:26.197Z,964.56
2018-08-04T05:41:26.138Z,964.56
2018-08-04T05:42:26.083Z,964.59
2018-08-04T05:43:26.150Z,964.63
2018-08-04T05:44:25.966Z,964.61
2018-08-04T05:45:25.910Z,964.66
2018-08-04T05:46:25.851Z,964.65
2018-08-04T05:47:25.790Z,964.65
2018-08-04T05:48:25.736Z,964.69
2018-08-04T05:49:25.676Z,964.64
2018-08-04T05:50:25.624Z,964.66
2018-08-04T05:51:25.562Z,964.66
2018-08-04T05:52:25.503Z,964.64
2018-08-04T05:53:25.447Z,964.69
2018-08-04T05:54:25.386Z,964.71
2018-08-04T05:55:25.330Z,964.72
2018-08-04T05:56:25.274Z,964.71
2018-08-04T05:57:25.216Z,964.72
2018-08-04T05:58:25.158Z,964.74
2018-08-04T05:59:25.101Z,964.70
2018-08-04T06:00:25.046Z,964.72
2018-08-04T06:01:24.986Z,964.71
2018-08-04T06:02:24.929Z,964.72
2018-08-04T06:03:24.895Z,964.73
2018-08-04T06:04:24.815Z,964.70
2018-08-04T06:05:24.760Z,964.73
2018-08-04T06:06:24.699Z,964.72
2018-08-04T06:07:24.642Z,964.72
2018-08-04T06:08:24.583Z,964.74
2018-08-04T06:09:24.530Z,964.75
2018-08-04T06:10:24.467Z,964.69
2018-08-04T06:11:24.421Z,964.70
2018-08-04T06:12:24.359Z,964.74
2018-08-04T06:13:24.298Z,964.76
2018-08-04T06:14:24.240Z,964.78
2018-08-04T06:15:24.182Z,964.78
2018-08-04T06:16:24.126Z,964.79
2018-08-04T06:17:24.068Z,964.78
2018-08-04T06:18:24.012Z,964.81
2018-08-04T06:19:23.953Z,964.83
2018-08-04T06:20:23.896Z,964.86
2018-08-04T06:21:23.840Z,964.87
2018-08-04T06:22:23.784Z,964.85
2018-08-04T06:23:23.725Z,964.82
2018-08-04T06:24:23.670Z,964.84
2018-08-04T06:25:23.611Z,964.87
2018-08-04T06:26:23.551Z,964.84
2018-08-04T06:27:23.497Z,964.86
2018-08-04T06:28:23.485Z,964.86
2018-08-04T06:29:23.388Z,964.84
2018-08-04T06:30:23.346Z,964.84
2018-08-04T06:31:23.268Z,964.86
2018-08-04T06:32:23.214Z,964.88
2018-08-04T06:33:23.155Z,964.83
2018-08-04T06:34:23.098Z,964.86
2018-08-04T06:35:23.042Z,964.88
2018-08-04T06:36:22.984Z,964.84
2018-08-04T06:37:22.931Z,964.83
2018-08-04T06:38:22.869Z,964.83
2018-08-04T06:39:22.816Z,964.84
2018-08-04T06:40:22.755Z,964.82
2018-08-04T06:41:22.715Z,964.80
2018-08-04T06:42:22.641Z,964.79
2018-08-04T06:43:22.587Z,964.82
2018-08-04T06:44:22.528Z,964.82
2018-08-04T06:45:22.475Z,964.83
2018-08-04T06:46:22.419Z,964.87
2018-08-04T06:47:22.359Z,964.83
2018-08-04T06:48:22.303Z,964.82
2018-08-04T06:49:22.250Z,964.89
2018-08-04T06:50:22.190Z,964.84
2018-08-04T06:51:22.134Z,964.87
2018-08-04T06:52:22.078Z,964.92
2018-08-04T06:53:22.021Z,964.87
2018-08-04T06:54:21.963Z,964.92
2018-08-04T06:55:21.907Z,964.94
2018-08-04T06:56:21.853Z,964.93
2018-08-04T06:57:21.792Z,964.91
2018-08-04T06:58:21.744Z,964.91
2018-08-04T06:59:21.681Z,964.92
2018-08-04T07:00:21.623Z,964.91
2018-08-04T07:01:21.570Z,964.89
2018-08-04T07:02:21.513Z,964.94
2018-08-04T07:03:21.458Z,964.95
2018-08-04T07:04:21.410Z,964.97
2018-08-04T07:05:21.350Z,964.94
2018-08-04T07:06:21.287Z,964.97
2018-08-04T07:07:21.229Z,964.93
2018-08-04T07:08:21.174Z,964.97
2018-08-04T07:09:21.120Z,964.96
2018-08-04T07:10:21.062Z,964.97
2018-08-04T07:11:21.005Z,964.93
2018-08-04T07:12:20.950Z,964.93
2018-08-04T07:13:20.898Z,964.92
2018-08-04T07:14:20.839Z,964.95
2018-08-04T07:15:20.784Z,964.89
2018-08-04T07:16:20.728Z,964.93
2018-08-04T07:17:20.671Z,964.88
2018-08-04T07:18:20.615Z,964.88
2018-08-04T07:19:20.561Z,964.92
2018-08-04T07:20:20.504Z,964.91
2018-08-04T07:21:20.447Z,964.93
2018-08-04T07:22:20.393Z,964.91
2018-08-04T07:23:20.335Z,964.89
2018-08-04T07:24:20.280Z,964.88
2018-08-04T07:25:20.225Z,964.88
2018-08-04T07:26:20.169Z,964.90
2018-08-04T07:27:20.115Z,964.83
2018-08-04T07:28:20.059Z,964.85
2018-08-04T07:29:20.002Z,964.84
2018-08-04T07:30:19.947Z,964.86
2018-08-04T07:31:19.893Z,964.87
2018-08-04T07:32:19.835Z,964.84
2018-08-04T07:33:19.779Z,964.84
2018-08-04T07:34:19.751Z,964.89
2018-08-04T07:35:19.672Z,964.83
2018-08-04T07:36:19.613Z,964.88
2018-08-04T07:37:19.557Z,964.84
2018-08-04T07:38:19.500Z,964.86
2018-08-04T07:39:19.453Z,964.83
2018-08-04T07:40:19.406Z,964.83
2018-08-04T07:41:19.339Z,964.83
2018-08-04T07:42:19.281Z,964.83
2018-08-04T07:43:19.229Z,964.83
2018-08-04T07:44:19.169Z,964.80
2018-08-04T07:45:19.115Z,964.83
2018-08-04T07:46:19.106Z,964.83
2018-08-04T07:47:19.003Z,964.80
2018-08-04T07:48:18.949Z,964.83
2018-08-04T07:49:18.891Z,964.86
2018-08-04T07:50:18.835Z,964.86
2018-08-04T07:51:18.782Z,964.84
2018-08-04T07:52:18.728Z,964.84
2018-08-04T07:53:18.670Z,964.80
2018-08-04T07:54:18.618Z,964.80
2018-08-04T07:55:18.559Z,964.83
2018-08-04T07:56:18.507Z,964.82
2018-08-04T07:57:18.449Z,964.85
2018-08-04T07:58:18.397Z,964.83
2018-08-04T07:59:18.361Z,964.81
2018-08-04T08:00:18.288Z,964.84
2018-08-04T08:01:18.228Z,964.84
2018-08-04T08:02:18.172Z,964.86
2018-08-04T08:03:18.119Z,964.84
2018-08-04T08:04:18.067Z,964.83
2018-08-04T08:05:18.008Z,964.87
2018-08-04T08:06:17.951Z,964.87
2018-08-04T08:07:17.897Z,964.85
2018-08-04T08:08:17.844Z,964.87
2018-08-04T08:09:17.786Z,964.89
2018-08-04T08:10:17.776Z,964.87
2018-08-04T08:11:17.709Z,964.86
2018-08-04T08:12:17.622Z,964.90
2018-08-04T08:13:17.566Z,964.89
2018-08-04T08:14:17.513Z,964.88
2018-08-04T08:15:17.456Z,964.89
2018-08-04T08:16:17.402Z,964.90
2018-08-04T08:17:17.347Z,964.90
2018-08-04T08:18:17.292Z,964.90
2018-08-04T08:19:17.296Z,964.87
2018-08-04T08:20:17.182Z,964.87
2018-08-04T08:21:17.129Z,964.82
2018-08-04T08:22:17.073Z,964.84
2018-08-04T08:23:17.051Z,964.86
2018-08-04T08:24:16.964Z,964.86
2018-08-04T08:25:16.909Z,964.82
2018-08-04T08:26:16.855Z,964.82
2018-08-04T08:27:16.801Z,964.88
2018-08-04T08:28:16.745Z,964.84
2018-08-04T08:29:16.689Z,964.83
2018-08-04T08:30:16.637Z,964.82
2018-08-04T08:31:16.644Z,964.85
2018-08-04T08:32:16.527Z,964.86
2018-08-04T08:33:16.472Z,964.80
2018-08-04T08:34:16.418Z,964.82
2018-08-04T08:35:16.366Z,964.82
2018-08-04T08:36:16.312Z,964.84
2018-08-04T08:37:16.252Z,964.86
2018-08-04T08:38:16.199Z,964.84
2018-08-04T08:39:16.144Z,964.84
2018-08-04T08:40:16.143Z,964.83
2018-08-04T08:41:16.037Z,964.83
2018-08-04T08:42:15.981Z,964.83
2018-08-04T08:43:15.929Z,964.83
2018-08-04T08:44:15.872Z,964.84
2018-08-04T08:45:15.817Z,964.85
2018-08-04T08:46:15.763Z,964.81
2018-08-04T08:47:15.756Z,964.82
2018-08-04T08:48:15.657Z,964.78
2018-08-04T08:49:15.602Z,964.81
2018-08-04T08:50:15.549Z,964.81
2018-08-04T08:51:15.490Z,964.78
2018-08-04T08:52:15.437Z,964.80
2018-08-04T08:53:15.462Z,964.85
2018-08-04T08:54:15.328Z,964.81
2018-08-04T08:55:15.274Z,964.81
2018-08-04T08:56:15.221Z,964.78
2018-08-04T08:57:15.164Z,964.77
2018-08-04T08:58:15.110Z,964.76
2018-08-04T08:59:15.058Z,964.76
2018-08-04T09:00:15.002Z,964.73
2018-08-04T09:01:14.958Z,964.75
2018-08-04T09:02:14.894Z,964.79
2018-08-04T09:03:14.840Z,964.77
2018-08-04T09:04:14.786Z,964.77
2018-08-04T09:05:14.731Z,964.79
2018-08-04T09:06:14.677Z,964.74
2018-08-04T09:07:14.624Z,964.75
2018-08-04T09:08:14.569Z,964.77
2018-08-04T09:09:14.515Z,964.77
2018-08-04T09:10:14.460Z,964.79
2018-08-04T09:11:14.408Z,964.80
2018-08-04T09:12:14.355Z,964.75
2018-08-04T09:13:14.300Z,964.74
2018-08-04T09:14:14.244Z,964.75
2018-08-04T09:15:14.191Z,964.70
2018-08-04T09:16:14.138Z,964.71
2018-08-04T09:17:14.082Z,964.69
2018-08-04T09:18:14.029Z,964.70
2018-08-04T09:19:13.976Z,964.73
2018-08-04T09:20:13.923Z,964.74
2018-08-04T09:21:13.869Z,964.71
2018-08-04T09:22:13.820Z,964.74
2018-08-04T09:23:13.761Z,964.74
2018-08-04T09:24:13.706Z,964.76
2018-08-04T09:25:13.653Z,964.74
2018-08-04T09:26:13.597Z,964.77
2018-08-04T09:27:13.544Z,964.75
2018-08-04T09:28:13.491Z,964.76
2018-08-04T09:29:13.437Z,964.75
2018-08-04T09:30:13.385Z,964.74
2018-08-04T09:31:13.332Z,964.76
2018-08-04T09:32:13.275Z,964.73
2018-08-04T09:33:13.225Z,964.73
2018-08-04T09:34:13.168Z,964.72
2018-08-04T09:35:13.114Z,964.74
2018-08-04T09:36:13.061Z,964.70
2018-08-04T09:37:13.004Z,964.72
2018-08-04T09:38:12.954Z,964.70
2018-08-04T09:39:12.960Z,964.76
2018-08-04T09:40:12.846Z,964.73
2018-08-04T09:41:12.793Z,964.75
2018-08-04T09:42:12.740Z,964.73
2018-08-04T09:43:12.690Z,964.77
2018-08-04T09:44:12.631Z,964.78
2018-08-04T09:45:12.580Z,964.76
2018-08-04T09:46:12.526Z,964.76
2018-08-04T09:47:12.475Z,964.81
2018-08-04T09:48:12.421Z,964.73
2018-08-04T09:49:12.365Z,964.72
2018-08-04T09:50:12.313Z,964.71
2018-08-04T09:51:12.261Z,964.71
2018-08-04T09:52:12.208Z,964.74
2018-08-04T09:53:12.157Z,964.74
2018-08-04T09:54:12.102Z,964.78
2018-08-04T09:55:12.052Z,964.81
2018-08-04T09:56:12.000Z,964.77
2018-08-04T09:57:11.945Z,964.80
2018-08-04T09:58:11.898Z,964.80
2018-08-04T09:59:11.843Z,964.83
2018-08-04T10:00:11.792Z,964.83
2018-08-04T10:01:11.740Z,964.86
2018-08-04T10:02:11.690Z,964.88
2018-08-04T10:03:11.640Z,964.81
2018-08-04T10:04:11.591Z,964.82
2018-08-04T10:05:11.556Z,964.84
2018-08-04T10:06:11.492Z,964.83
2018-08-04T10:07:11.443Z,964.78
2018-08-04T10:08:11.394Z,964.79
2018-08-04T10:09:11.346Z,964.80
2018-08-04T10:10:11.298Z,964.81
2018-08-04T10:11:11.285Z,964.82
2018-08-04T10:12:11.214Z,964.79
2018-08-04T10:13:11.154Z,964.83
2018-08-04T10:14:11.114Z,964.83
2018-08-04T10:15:11.094Z,964.85
2018-08-04T10:16:11.037Z,964.81
2018-08-04T10:17:10.981Z,964.83
2018-08-04T10:18:10.934Z,964.81
2018-08-04T10:19:10.904Z,964.86
2018-08-04T10:20:10.858Z,964.83
2018-08-04T10:21:10.785Z,964.81
2018-08-04T10:22:10.739Z,964.89
2018-08-04T10:23:10.694Z,964.84
2018-08-04T10:24:10.649Z,964.77
2018-08-04T10:25:10.602Z,964.81
2018-08-04T10:26:10.617Z,964.81
2018-08-04T10:27:10.512Z,964.81
2018-08-04T10:28:10.467Z,964.76
2018-08-04T10:29:10.421Z,964.76
2018-08-04T10:30:10.376Z,964.79
2018-08-04T10:31:10.332Z,964.80
2018-08-04T10:32:10.440Z,964.82
2018-08-04T10:33:10.239Z,964.90
2018-08-04T10:34:10.195Z,964.89
2018-08-04T10:35:10.149Z,964.88
2018-08-04T10:36:10.106Z,964.84
2018-08-04T10:37:10.058Z,964.84
2018-08-04T10:38:10.014Z,964.89
2018-08-04T10:39:09.967Z,964.85
2018-08-04T10:40:09.926Z,964.85
2018-08-04T10:41:09.876Z,964.81
2018-08-04T10:42:09.830Z,964.81
2018-08-04T10:43:09.789Z,964.82
2018-08-04T10:44:09.737Z,964.79
2018-08-04T10:45:09.692Z,964.78
2018-08-04T10:46:09.650Z,964.81
2018-08-04T10:47:09.602Z,964.78
2018-08-04T10:48:09.556Z,964.74
2018-08-04T10:49:09.510Z,964.73
2018-08-04T10:50:09.462Z,964.74
2018-08-04T10:51:09.417Z,964.70
2018-08-04T10:52:09.372Z,964.74
2018-08-04T10:53:09.326Z,964.71
2018-08-04T10:54:09.281Z,964.62
2018-08-04T10:55:09.235Z,964.59
2018-08-04T10:56:09.189Z,964.57
2018-08-04T10:57:09.235Z,964.51
2018-08-04T10:58:09.096Z,964.49
2018-08-04T10:59:09.050Z,964.49
2018-08-04T11:00:09.005Z,964.45
2018-08-04T11:01:08.958Z,964.47
2018-08-04T11:02:08.913Z,964.45
2018-08-04T11:03:08.866Z,964.48
2018-08-04T11:04:08.819Z,964.46
2018-08-04T11:05:08.772Z,964.52
2018-08-04T11:06:08.727Z,964.47
2018-08-04T11:07:08.684Z,964.48
2018-08-04T11:08:08.637Z,964.42
2018-08-04T11:09:08.586Z,964.47
2018-08-04T11:10:08.561Z,964.43
2018-08-04T11:11:08.493Z,964.49
2018-08-04T11:12:08.449Z,964.46
2018-08-04T11:13:08.407Z,964.49
2018-08-04T11:14:08.354Z,964.44
2018-08-04T11:15:08.308Z,964.43
2018-08-04T11:16:08.264Z,964.45
2018-08-04T11:17:08.212Z,964.48
2018-08-04T11:18:08.186Z,964.50
2018-08-04T11:19:08.117Z,964.48
2018-08-04T11:20:08.078Z,964.50
2018-08-04T11:21:08.047Z,964.49
2018-08-04T11:22:07.976Z,964.47
2018-08-04T11:23:07.928Z,964.44
2018-08-04T11:24:07.923Z,964.51
2018-08-04T11:25:07.829Z,964.47
2018-08-04T11:26:07.781Z,964.49
2018-08-04T11:27:07.733Z,964.50
2018-08-04T11:28:07.691Z,964.46
2018-08-04T11:29:07.632Z,964.51
2018-08-04T11:30:07.589Z,964.46
2018-08-04T11:31:07.538Z,964.43
2018-08-04T11:32:07.488Z,964.45
2018-08-04T11:33:07.438Z,964.42
2018-08-04T11:34:07.388Z,964.40
2018-08-04T11:35:07.339Z,964.39
2018-08-04T11:36:07.291Z,964.39
2018-08-04T11:37:07.236Z,964.39
2018-08-04T11:38:07.189Z,964.35
2018-08-04T11:39:07.136Z,964.37
2018-08-04T11:40:07.085Z,964.34
2018-08-04T11:41:07.032Z,964.38
2018-08-04T11:42:06.987Z,964.32
2018-08-04T11:43:06.931Z,964.28
2018-08-04T11:44:06.883Z,964.27
2018-08-04T11:45:06.828Z,964.29
2018-08-04T11:46:06.775Z,964.29
2018-08-04T11:47:06.725Z,964.25
2018-08-04T11:48:06.675Z,964.26
2018-08-04T11:49:06.620Z,964.24
2018-08-04T11:50:06.570Z,964.21
2018-08-04T11:51:06.519Z,964.19
2018-08-04T11:52:06.469Z,964.17
2018-08-04T11:53:06.415Z,964.13
2018-08-04T11:54:06.364Z,964.10
2018-08-04T11:55:06.313Z,964.13
2018-08-04T11:56:06.263Z,964.10
2018-08-04T11:57:06.208Z,964.11
2018-08-04T11:58:06.154Z,964.06
2018-08-04T11:59:06.102Z,964.03
2018-08-04T12:00:06.055Z,964.03
2018-08-04T12:01:05.998Z,964.05
2018-08-04T12:02:05.949Z,964.01
2018-08-04T12:03:05.899Z,963.99
2018-08-04T12:04:05.842Z,963.99
2018-08-04T12:05:05.791Z,963.99
2018-08-04T12:06:05.739Z,963.98
2018-08-04T12:07:05.714Z,963.96
2018-08-04T12:08:05.632Z,963.99
2018-08-04T12:09:05.579Z,964.06
2018-08-04T12:10:05.530Z,964.05
2018-08-04T12:11:05.527Z,964.02
2018-08-04T12:12:05.427Z,964.02
2018-08-04T12:13:05.373Z,963.96
2018-08-04T12:14:05.320Z,963.97
2018-08-04T12:15:05.263Z,963.97
2018-08-04T12:16:05.215Z,963.98
2018-08-04T12:17:05.162Z,963.99
2018-08-04T12:18:05.115Z,963.96
2018-08-04T12:19:05.064Z,963.90
2018-08-04T12:20:05.007Z,963.93
2018-08-04T12:21:04.959Z,963.88
2018-08-04T12:22:04.902Z,963.90
2018-08-04T12:23:04.849Z,963.89
2018-08-04T12:24:04.797Z,963.89
2018-08-04T12:25:04.744Z,963.92
2018-08-04T12:26:04.692Z,963.88
2018-08-04T12:27:04.639Z,963.89
2018-08-04T12:28:04.586Z,963.89